Latest Weather Observations for Fortescue Dave Forrest

IDW60801

Issued at 9:33 pm WST Monday 26 June 2017 (issued every 30 minutes, with the page automatically refreshed every 10 minutes)

About weather observations | Map of weather stations | Latest weather observations for WA | Other Formats
Station Details ID: 505056 Name: FORTESCUE DAVE FORREST Lat: -22.29 Lon: 119.43 Height: 474.6 m
Data from the previous 72 hours. | See also: Recent months for locations in Western Australia
Date/Time
WST
Temp
°C
App
Temp
°C
Dew
Point
°C
Rel
Hum
%
Delta-T
°C
Wind Press
QNH
hPa
Press
MSL
hPa
Rain since
9am
mm
Dir  Spd
km/h
Gust
km/h
Spd
kts
Gust
kts
26/09:30pm 15.0 11.1 8.7 66 3.3 SE 19 30 10 16 1021.3 1020.5 0.0
26/09:00pm 15.4 11.6 8.9 65 3.4 SSE 19 32 10 17 1021.1 1020.3 0.0
26/08:30pm 16.0 12.1 8.7 62 3.8 SSE 19 32 10 17 1020.7 1019.9 0.0
26/08:00pm 16.4 13.0 9.1 62 3.9 SSE 17 30 9 16 1020.2 1019.3 0.0
26/07:30pm 16.9 13.9 9.1 60 4.1 SSE 15 22 8 12 1019.9 1019.1 0.0
26/07:00pm 17.4 14.4 9.3 59 4.3 SSE 15 22 8 12 1019.5 1018.7 0.0
26/06:30pm 17.7 14.8 9.6 59 4.4 SSE 15 22 8 12 1019.1 1018.3 0.0
26/06:00pm 18.2 15.5 9.0 55 4.9 SSE 13 19 7 10 1018.6 1017.7 0.0
26/05:30pm 18.6 16.3 9.1 54 5.1 SSE 11 17 6 9 1018.2 1017.3 0.0
26/05:00pm 19.5 16.9 9.4 52 5.5 SSE 13 20 7 11 1018.2 1017.3 0.0
26/04:30pm 20.1 17.6 9.7 51 5.7 SE 13 24 7 13 1017.7 1016.9 0.0
26/04:00pm 20.6 17.3 9.5 49 6.1 SSE 17 26 9 14 1017.4 1016.6 0.0
26/03:30pm 21.0 17.4 9.9 49 6.1 SE 19 28 10 15 1017.3 1016.5 0.0
26/03:00pm 20.7 16.9 9.9 50 5.9 SE 20 30 11 16 1017.2 1016.4 0.0
26/02:30pm 20.5 17.1 10.6 53 5.5 SE 19 32 10 17 1017.2 1016.4 0.0
26/02:00pm 20.4 17.0 10.5 53 5.5 SE 19 32 10 17 1017.4 1016.6 0.0
26/01:30pm 19.7 16.1 10.4 55 5.1 SE 20 32 11 17 1017.6 1016.8 0.0
26/01:00pm 19.3 14.9 10.3 56 4.9 SE 24 33 13 18 1017.8 1017.0 0.0
26/12:30pm 19.4 15.5 10.7 57 4.8 SE 22 35 12 19 1018.3 1017.4 0.0
26/12:00pm 18.5 14.2 10.6 60 4.3 SSE 24 35 13 19 1019.0 1018.2 0.0
26/11:30am 17.6 13.2 10.5 63 3.9 SE 24 39 13 21 1019.5 1018.7 0.0
26/11:00am 17.0 13.0 10.4 65 3.6 SSE 22 32 12 17 1019.9 1019.1 0.0
26/10:30am 16.6 13.0 10.7 68 3.2 SE 20 32 11 17 1020.4 1019.5 0.0
26/10:16am 15.9 11.4 10.2 69 3.1 SE 24 33 13 18 1020.4 1019.5 0.0
26/10:00am 14.9 10.9 10.5 75 2.4 SE 22 35 12 19 1020.5 1019.6 0.0
26/09:30am 14.6 10.3 10.6 77 2.2 SSE 24 33 13 18 1020.4 1019.5 0.0
26/09:00am 14.3 9.9 10.5 78 2.0 SE 24 33 13 18 1020.3 1019.4 0.0
26/08:30am 14.2 10.6 10.6 79 1.9 SE 20 33 11 18 1020.3 1019.4 0.0
26/08:00am 13.9 10.0 10.9 82 1.6 SSE 22 37 12 20 1019.6 1018.8 0.0
26/07:30am 14.1 10.6 10.9 81 1.7 SSE 20 33 11 18 1019.2 1018.4 0.0
26/07:00am 14.2 10.7 11.0 81 1.7 SE 20 33 11 18 1019.0 1018.2 0.0
26/06:30am 14.2 10.7 11.0 81 1.7 SSE 20 32 11 17 1018.6 1017.7 0.0
26/06:00am 14.2 10.3 10.8 80 1.8 SSE 22 33 12 18 1018.0 1017.1 0.0
26/05:30am 14.2 10.2 10.6 79 1.9 SE 22 33 12 18 1017.8 1017.0 0.0
26/05:00am 14.1 9.8 10.7 80 1.8 SSE 24 39 13 21 1017.7 1016.9 0.0
26/04:30am 14.0 9.7 10.8 81 1.7 SSE 24 37 13 20 1017.5 1016.7 0.0
26/04:24am 13.9 9.2 10.7 81 1.7 SSE 26 39 14 21 1017.5 1016.7 0.0
26/04:00am 14.3 10.0 10.9 80 1.8 SSE 24 39 13 21 1017.4 1016.6 0.0
26/03:30am 14.8 10.6 11.0 78 2.1 SE 24 37 13 20 1017.4 1016.6 0.0
26/03:00am 15.0 10.8 11.0 77 2.2 SSE 24 35 13 19 1017.1 1016.3 0.0
26/02:30am 15.0 10.4 11.2 78 2.1 SE 26 39 14 21 1017.1 1016.3 0.0
26/02:00am 15.1 10.6 11.3 78 2.1 SE 26 39 14 21 1017.1 1016.3 0.0
26/01:30am 15.2 11.5 11.6 79 2.0 SE 22 32 12 17 1017.2 1016.4 0.0
26/01:00am 15.1 11.8 11.5 79 2.0 SE 20 33 11 18 1017.5 1016.7 0.0
26/12:30am 15.1 11.8 11.5 79 2.0 SE 20 33 11 18 1017.4 1016.6 0.0
26/12:00am 15.1 11.0 11.5 79 2.0 SE 24 39 13 21 1017.6 1016.8 0.0
 
Date/Time
WST
Temp
°C
App
Temp
°C
Dew
Point
°C
Rel
Hum
%
Delta-T
°C
Wind Press
QNH
hPa
Press
MSL
hPa
Rain since
9am
mm
Dir  Spd
km/h
Gust
km/h
Spd
kts
Gust
kts
25/11:30pm 15.2 11.5 11.6 79 2.0 SSE 22 33 12 18 1017.5 1016.7 0.0
25/11:00pm 15.1 12.4 11.7 80 1.9 SSE 17 26 9 14 1017.4 1016.6 0.0
25/10:30pm 15.7 12.1 11.7 77 2.2 SSE 22 35 12 19 1017.3 1016.5 0.0
25/10:00pm 17.0 13.4 11.7 71 3.0 SE 22 35 12 19 1017.1 1016.3 0.0
25/09:30pm 17.8 14.7 11.6 67 3.5 SE 19 32 10 17 1016.6 1015.7 0.0
25/09:00pm 18.3 15.1 11.1 63 4.0 SE 19 28 10 15 1016.1 1015.2 0.0
25/08:30pm 18.4 15.8 9.5 56 4.8 SE 13 20 7 11 1015.9 1015.0 0.0
25/08:00pm 18.7 17.0 8.4 51 5.4 SE 7 11 4 6 1015.5 1014.7 0.0
25/07:30pm 19.0 16.7 7.4 47 6.0 SSE 9 11 5 6 1015.1 1014.2 0.0
25/07:00pm 17.9 16.4 4.8 42 6.4 S 2 9 1 5 1014.8 1013.9 0.0
25/06:30pm 18.1 16.2 4.7 41 6.6 NW 4 4 2 2 1014.4 1013.5 0.0
25/06:00pm 20.5 18.8 4.1 34 8.1 SE 2 4 1 2 1014.0 1013.1 0.0
25/05:30pm 22.2 19.8 2.3 27 9.6 ESE 4 6 2 3 1013.9 1013.0 0.0
25/05:00pm 23.4 20.6 2.3 25 10.3 SE 6 6 3 3 1013.6 1012.7 0.0
25/04:30pm 24.1 21.1 1.7 23 10.8 SSE 7 13 4 7 1013.5 1012.6 0.0
25/04:00pm 25.3 22.0 0.0 19 12.0 S 7 11 4 6 1013.1 1012.2 0.0
25/03:30pm 25.4 21.8 0.8 20 11.8 S 9 15 5 8 1013.0 1012.1 0.0
25/03:00pm 25.6 22.4 1.0 20 11.9 SSE 7 15 4 8 1012.9 1012.0 0.0
25/02:30pm 25.6 22.0 0.3 19 12.0 S 9 17 5 9 1013.0 1012.1 0.0
25/02:00pm 25.3 21.8 1.4 21 11.6 SSE 9 20 5 11 1013.3 1012.5 0.0
25/01:30pm 25.0 20.9 2.4 23 11.1 SSE 13 22 7 12 1013.5 1012.6 0.0
25/01:00pm 23.9 20.7 3.2 26 10.3 SSE 9 19 5 10 1013.7 1012.8 0.0
25/12:30pm 24.0 21.3 3.9 27 10.1 S 7 15 4 8 1014.1 1013.2 0.0
25/12:00pm 23.6 20.6 4.0 28 9.8 S 9 19 5 10 1014.6 1013.7 0.0
25/11:30am 22.8 19.9 4.8 31 9.1 SSE 9 19 5 10 1015.2 1014.4 0.0
25/11:00am 22.3 18.8 5.3 33 8.7 SSE 13 22 7 12 1015.7 1014.8 0.0
25/10:30am 21.4 18.4 6.1 37 7.9 S 11 17 6 9 1016.0 1015.1 0.0
25/10:00am 20.4 17.9 6.7 41 7.1 S 9 15 5 8 1016.1 1015.2 0.0
25/09:30am 19.0 17.1 7.4 47 6.0 SSW 7 11 4 6 1016.2 1015.3 0.0
25/09:00am 17.8 16.6 8.1 53 5.1 SW 4 6 2 3 1016.1 1015.2 -
25/08:30am 16.4 15.7 8.6 60 4.1 ESE 2 6 1 3 1016.0 1015.1 -
25/08:00am 14.7 13.1 8.2 65 3.3 SSW 6 7 3 4 1015.5 1014.7 -
25/07:30am 13.6 12.3 7.6 67 3.0 NNW 4 4 2 2 1015.0 1014.1 -
25/07:00am 13.1 11.7 7.3 68 2.9 NNW 4 6 2 3 1014.7 1013.8 -
25/06:30am 13.3 11.5 7.3 67 3.0 NW 6 6 3 3 1014.2 1013.3 -
25/06:00am 13.3 11.0 7.3 67 3.0 N 9 11 5 6 1014.1 1013.2 -
25/05:30am 14.6 11.9 7.4 62 3.6 NNE 11 11 6 6 1013.9 1013.0 -
25/05:00am 14.4 12.5 7.7 64 3.4 N 7 7 4 4 1013.8 1012.9 -
25/04:30am 15.1 13.3 7.9 62 3.7 N 7 9 4 5 1013.9 1013.0 -
25/04:00am 15.4 13.8 8.2 62 3.7 N 6 7 3 4 1014.0 1013.1 -
25/03:30am 15.8 14.3 8.3 61 3.9 NNW 6 7 3 4 1013.9 1013.0 -
25/03:00am 15.8 14.3 8.3 61 3.9 NNW 6 6 3 3 1014.0 1013.1 0.0
25/02:30am 16.6 14.8 8.1 57 4.4 N 7 9 4 5 1013.8 1012.9 -
25/02:00am 17.3 15.8 8.4 56 4.7 NNW 6 7 3 4 1014.1 1013.2 -
25/01:30am 17.5 16.4 8.6 56 4.7 NNW 4 6 2 3 1014.3 1013.4 -
25/01:00am 17.9 16.5 8.7 55 4.9 NNW 6 7 3 4 1014.6 1013.7 -
25/12:30am 17.2 16.3 9.4 60 4.2 NW 4 7 2 4 1014.7 1013.8 -
25/12:00am 18.6 16.9 9.7 56 4.8 WNW 9 11 5 6 1014.6 1013.7 -
 
Date/Time
WST
Temp
°C
App
Temp
°C
Dew
Point
°C
Rel
Hum
%
Delta-T
°C
Wind Press
QNH
hPa
Press
MSL
hPa
Rain since
9am
mm
Dir  Spd
km/h
Gust
km/h
Spd
kts
Gust
kts
24/11:30pm 19.3 17.8 10.6 57 4.8 WNW 9 15 5 8 1014.8 1013.9 -
24/11:00pm 19.8 17.7 11.0 57 4.9 WNW 13 19 7 10 1014.9 1014.0 -
24/10:30pm 19.5 18.6 11.5 60 4.5 NW 7 11 4 6 1015.0 1014.1 -
24/10:00pm 19.7 18.5 11.5 59 4.6 NW 9 11 5 6 1015.0 1014.1 -
24/09:30pm 19.7 18.5 11.5 59 4.6 NW 9 11 5 6 1015.0 1014.1 -
24/09:00pm 20.2 18.9 11.4 57 5.0 NNW 9 11 5 6 1015.0 1014.1 -
24/08:30pm 20.4 19.2 11.6 57 5.0 NNW 9 13 5 7 1014.9 1014.0 -
24/08:00pm 19.7 18.5 11.5 59 4.6 NNW 9 11 5 6 1014.6 1013.7 -
24/07:30pm 19.7 18.5 11.5 59 4.6 N 9 11 5 6 1014.3 1013.4 -
24/07:00pm 20.5 19.6 11.4 56 5.1 NNW 7 9 4 5 1014.2 1013.3 -
24/06:30pm 21.5 20.3 11.5 53 5.7 NNW 9 11 5 6 1014.0 1013.1 -
24/06:00pm 22.0 20.4 11.4 51 6.0 N 11 15 6 8 1013.9 1013.0 -
24/05:30pm 23.5 22.2 11.2 46 7.0 NW 9 13 5 7 1013.6 1012.7 -
24/05:00pm 24.4 22.4 11.4 44 7.5 WNW 13 20 7 11 1013.5 1012.6 -
24/04:30pm 24.9 22.7 10.8 41 8.1 NW 13 19 7 10 1013.0 1012.1 -
24/04:00pm 25.1 22.7 10.2 39 8.4 NW 13 20 7 11 1012.8 1011.9 -
24/03:30pm 25.4 21.9 10.1 38 8.7 NW 19 26 10 14 1012.5 1011.6 -
24/03:00pm 25.4 22.6 10.1 38 8.7 NNW 15 24 8 13 1012.6 1011.7 0.0
24/02:30pm 25.3 22.1 10.0 38 8.6 NNW 17 24 9 13 1012.7 1011.8 0.0
24/02:00pm 25.3 22.0 9.6 37 8.8 NW 17 22 9 12 1012.9 1012.0 0.0
24/01:30pm 25.3 22.1 10.0 38 8.6 NW 17 24 9 13 1013.2 1012.3 0.0
24/01:00pm 24.5 23.4 10.0 40 8.2 WSW 6 11 3 6 1013.6 1012.7 0.0
24/12:30pm 23.6 22.5 9.9 42 7.7 SSW 6 9 3 5 1014.0 1013.1 0.0
24/12:00pm 22.6 21.2 9.7 44 7.1 SW 7 13 4 7 1014.6 1013.7 0.0
24/11:30am 22.4 20.8 10.2 46 6.8 SSW 9 13 5 7 1015.3 1014.5 0.0
24/11:00am 22.0 21.3 10.2 47 6.6 SE 4 9 2 5 1015.8 1014.9 0.0
24/10:30am 20.4 19.3 9.9 51 5.8 E 6 7 3 4 1016.4 1015.5 0.0
24/10:00am 18.6 17.5 9.9 57 4.7 ESE 6 9 3 5 1016.7 1015.8 0.0
24/09:30am 17.0 15.7 9.9 63 3.8 ESE 7 11 4 6 1017.0 1016.2 0.0
24/09:00am 15.2 13.9 9.8 70 2.9 ESE 7 13 4 7 1017.1 1016.3 -
24/08:30am 14.1 12.7 9.5 74 2.4 SE 7 13 4 7 1017.0 1016.2 -
24/08:00am 13.0 11.3 8.5 74 2.3 SSE 7 13 4 7 1016.5 1015.6 -
24/07:00am 12.0 10.3 8.5 79 1.8 SSE 7 11 4 6 1015.7 1014.8 0.0
24/06:30am 12.0 11.0 8.7 80 1.7 ESE 4 6 2 3 1015.3 1014.5 0.0
24/06:00am 11.8 10.7 8.3 79 1.8 ESE 4 7 2 4 1014.9 1014.0 0.0
24/05:30am 12.0 10.9 8.5 79 1.8 SE 4 7 2 4 1014.7 1013.8 0.0
24/05:00am 12.5 10.8 8.4 76 2.1 SSE 7 9 4 5 1014.7 1013.8 0.0
24/04:30am 12.7 11.0 8.2 74 2.3 SSE 7 9 4 5 1014.6 1013.7 0.0
24/04:00am 13.0 11.4 8.1 72 2.5 SSE 6 9 3 5 1014.7 1013.8 0.0
24/03:30am 13.3 11.4 7.7 69 2.8 SSW 7 9 4 5 1014.8 1013.9 0.0
24/03:00am 13.1 11.7 7.1 67 3.0 SSW 4 4 2 2 1014.8 1013.9 0.0
24/02:30am 13.2 12.2 7.2 67 3.0 SSE 2 2 1 1 1014.9 1014.0 0.0
24/02:00am 14.0 12.9 6.8 62 3.6 S 2 4 1 2 1015.0 1014.1 0.0
24/01:30am 13.7 12.6 7.0 64 3.3 NE 2 4 1 2 1015.3 1014.5 0.0
24/01:00am 14.4 13.4 7.2 62 3.6 N 2 4 1 2 1015.5 1014.7 0.0
24/12:30am 14.2 13.1 7.0 62 3.6 NW 2 4 1 2 1015.4 1014.6 0.0
24/12:00am 14.3 13.2 7.1 62 3.6 NW 2 4 1 2 1015.5 1014.7 0.0
 
Date/Time
WST
Temp
°C
App
Temp
°C
Dew
Point
°C
Rel
Hum
%
Delta-T
°C
Wind Press
QNH
hPa
Press
MSL
hPa
Rain since
9am
mm
Dir  Spd
km/h
Gust
km/h
Spd
kts
Gust
kts
23/11:30pm 14.7 13.7 7.3 61 3.7 NW 2 4 1 2 1015.7 1014.8 0.0
23/11:00pm 14.5 13.5 7.5 63 3.5 WNW 2 4 1 2 1016.0 1015.1 0.0
23/10:30pm 15.3 14.7 7.6 60 3.9 CALM 0 2 0 1 1016.3 1015.4 0.0
23/10:00pm 16.2 15.7 7.7 57 4.4 CALM 0 2 0 1 1016.3 1015.4 0.0

Other Formats:

Comma delimited format used in spreadsheet applications
http://www.bom.gov.au/fwo/IDW60801/IDW60801.99736.axf

JavaScript Object Notation format (JSON) in row-major order
http://www.bom.gov.au/fwo/IDW60801/IDW60801.99736.json